sensor_id;sensor_type;location;lat;lon;timestamp;temperature;humidity
36990;DHT22;22898;52.102;5.776;2023-03-03T00:01:04;8.40;99.40
36990;DHT22;22898;52.102;5.776;2023-03-03T00:03:30;8.00;99.90
36990;DHT22;22898;52.102;5.776;2023-03-03T00:05:56;7.90;99.90
36990;DHT22;22898;52.102;5.776;2023-03-03T00:08:22;7.90;99.90
36990;DHT22;22898;52.102;5.776;2023-03-03T00:10:48;8.10;99.90
36990;DHT22;22898;52.102;5.776;2023-03-03T00:13:19;8.40;99.90
36990;DHT22;22898;52.102;5.776;2023-03-03T00:15:46;8.10;99.90
36990;DHT22;22898;52.102;5.776;2023-03-03T00:18:35;8.10;99.90
36990;DHT22;22898;52.102;5.776;2023-03-03T00:21:02;8.20;99.90
36990;DHT22;22898;52.102;5.776;2023-03-03T00:23:35;8.50;99.70
36990;DHT22;22898;52.102;5.776;2023-03-03T00:26:01;8.60;99.50
36990;DHT22;22898;52.102;5.776;2023-03-03T00:28:45;8.70;99.30
36990;DHT22;22898;52.102;5.776;2023-03-03T00:31:35;9.00;99.00
36990;DHT22;22898;52.102;5.776;2023-03-03T00:34:26;8.80;99.00
36990;DHT22;22898;52.102;5.776;2023-03-03T00:36:56;8.50;99.20
36990;DHT22;22898;52.102;5.776;2023-03-03T00:39:35;8.40;99.90
36990;DHT22;22898;52.102;5.776;2023-03-03T00:42:01;8.20;99.60
36990;DHT22;22898;52.102;5.776;2023-03-03T00:44:41;8.40;99.70
36990;DHT22;22898;52.102;5.776;2023-03-03T00:49:40;8.60;98.90
36990;DHT22;22898;52.102;5.776;2023-03-03T00:52:13;8.00;99.80
36990;DHT22;22898;52.102;5.776;2023-03-03T00:54:40;7.80;99.90
36990;DHT22;22898;52.102;5.776;2023-03-03T00:57:06;7.60;99.90
36990;DHT22;22898;52.102;5.776;2023-03-03T00:59:31;7.10;99.90
36990;DHT22;22898;52.102;5.776;2023-03-03T01:01:57;7.20;99.90
36990;DHT22;22898;52.102;5.776;2023-03-03T01:04:22;7.30;99.90
36990;DHT22;22898;52.102;5.776;2023-03-03T01:06:48;7.30;99.90
36990;DHT22;22898;52.102;5.776;2023-03-03T01:09:14;7.20;99.90
36990;DHT22;22898;52.102;5.776;2023-03-03T01:11:40;7.10;99.90
36990;DHT22;22898;52.102;5.776;2023-03-03T01:14:05;7.20;99.90
36990;DHT22;22898;52.102;5.776;2023-03-03T01:16:31;6.80;99.90
36990;DHT22;22898;52.102;5.776;2023-03-03T01:18:57;7.10;99.90
36990;DHT22;22898;52.102;5.776;2023-03-03T01:21:22;7.30;99.90
36990;DHT22;22898;52.102;5.776;2023-03-03T01:23:49;7.50;99.90
36990;DHT22;22898;52.102;5.776;2023-03-03T01:26:15;7.60;99.90
36990;DHT22;22898;52.102;5.776;2023-03-03T01:28:40;7.90;99.90
36990;DHT22;22898;52.102;5.776;2023-03-03T01:31:06;8.10;99.90
36990;DHT22;22898;52.102;5.776;2023-03-03T01:33:35;7.70;99.90
36990;DHT22;22898;52.102;5.776;2023-03-03T01:36:02;7.90;99.90
36990;DHT22;22898;52.102;5.776;2023-03-03T01:38:28;7.90;99.90
36990;DHT22;22898;52.102;5.776;2023-03-03T01:40:57;7.90;99.90
36990;DHT22;22898;52.102;5.776;2023-03-03T01:43:26;7.90;99.90
36990;DHT22;22898;52.102;5.776;2023-03-03T01:48:35;8.50;99.90
36990;DHT22;22898;52.102;5.776;2023-03-03T01:51:15;8.30;99.90
36990;DHT22;22898;52.102;5.776;2023-03-03T01:53:50;8.10;99.90
36990;DHT22;22898;52.102;5.776;2023-03-03T01:56:17;8.20;99.90
36990;DHT22;22898;52.102;5.776;2023-03-03T01:58:46;8.30;99.90
36990;DHT22;22898;52.102;5.776;2023-03-03T02:01:19;8.30;99.90
36990;DHT22;22898;52.102;5.776;2023-03-03T02:03:45;8.40;99.90
36990;DHT22;22898;52.102;5.776;2023-03-03T02:06:14;8.20;99.90
36990;DHT22;22898;52.102;5.776;2023-03-03T02:11:50;7.60;99.90
36990;DHT22;22898;52.102;5.776;2023-03-03T02:14:16;7.20;99.90
36990;DHT22;22898;52.102;5.776;2023-03-03T02:16:43;7.30;99.90
36990;DHT22;22898;52.102;5.776;2023-03-03T02:21:46;7.00;99.90
36990;DHT22;22898;52.102;5.776;2023-03-03T02:24:23;6.90;99.90
36990;DHT22;22898;52.102;5.776;2023-03-03T02:26:52;6.70;99.90
36990;DHT22;22898;52.102;5.776;2023-03-03T02:29:19;6.90;99.90
36990;DHT22;22898;52.102;5.776;2023-03-03T02:31:44;6.80;99.90
36990;DHT22;22898;52.102;5.776;2023-03-03T02:34:10;7.10;99.90
36990;DHT22;22898;52.102;5.776;2023-03-03T02:36:37;7.10;99.90
36990;DHT22;22898;52.102;5.776;2023-03-03T02:41:56;7.30;99.90
36990;DHT22;22898;52.102;5.776;2023-03-03T02:44:25;7.40;99.90
36990;DHT22;22898;52.102;5.776;2023-03-03T02:46:53;7.50;99.90
36990;DHT22;22898;52.102;5.776;2023-03-03T02:49:21;7.20;99.90
36990;DHT22;22898;52.102;5.776;2023-03-03T02:51:49;7.20;99.90
36990;DHT22;22898;52.102;5.776;2023-03-03T02:54:16;7.40;99.90
36990;DHT22;22898;52.102;5.776;2023-03-03T02:56:42;7.40;99.90
36990;DHT22;22898;52.102;5.776;2023-03-03T02:59:09;7.40;99.90
36990;DHT22;22898;52.102;5.776;2023-03-03T03:01:34;7.50;99.90
36990;DHT22;22898;52.102;5.776;2023-03-03T03:04:09;7.70;99.90
36990;DHT22;22898;52.102;5.776;2023-03-03T03:06:37;8.00;99.90
36990;DHT22;22898;52.102;5.776;2023-03-03T03:09:04;8.20;99.90
36990;DHT22;22898;52.102;5.776;2023-03-03T03:11:30;7.90;99.80
36990;DHT22;22898;52.102;5.776;2023-03-03T03:13:56;7.60;99.90
36990;DHT22;22898;52.102;5.776;2023-03-03T03:16:22;7.30;99.90
36990;DHT22;22898;52.102;5.776;2023-03-03T03:18:47;7.30;99.90
36990;DHT22;22898;52.102;5.776;2023-03-03T03:21:16;7.10;99.90
36990;DHT22;22898;52.102;5.776;2023-03-03T03:23:42;7.50;99.90
36990;DHT22;22898;52.102;5.776;2023-03-03T03:26:09;7.70;99.90
36990;DHT22;22898;52.102;5.776;2023-03-03T03:28:35;8.10;99.90
36990;DHT22;22898;52.102;5.776;2023-03-03T03:31:01;8.30;99.50
36990;DHT22;22898;52.102;5.776;2023-03-03T03:33:27;8.40;99.50
36990;DHT22;22898;52.102;5.776;2023-03-03T03:35:54;8.40;99.20
36990;DHT22;22898;52.102;5.776;2023-03-03T03:38:22;8.40;99.20
36990;DHT22;22898;52.102;5.776;2023-03-03T03:40:49;8.50;99.10
36990;DHT22;22898;52.102;5.776;2023-03-03T03:43:14;8.60;98.50
36990;DHT22;22898;52.102;5.776;2023-03-03T03:45:43;8.30;99.10
36990;DHT22;22898;52.102;5.776;2023-03-03T03:48:09;8.00;99.30
36990;DHT22;22898;52.102;5.776;2023-03-03T03:50:35;7.60;99.90
36990;DHT22;22898;52.102;5.776;2023-03-03T03:53:01;7.40;99.90
36990;DHT22;22898;52.102;5.776;2023-03-03T03:55:27;7.40;99.90
36990;DHT22;22898;52.102;5.776;2023-03-03T03:57:53;7.40;99.90
36990;DHT22;22898;52.102;5.776;2023-03-03T04:00:19;7.50;99.90
36990;DHT22;22898;52.102;5.776;2023-03-03T04:02:45;7.50;99.90
36990;DHT22;22898;52.102;5.776;2023-03-03T04:05:10;7.50;99.90
36990;DHT22;22898;52.102;5.776;2023-03-03T04:07:37;7.50;99.90
36990;DHT22;22898;52.102;5.776;2023-03-03T04:10:03;7.70;99.90
36990;DHT22;22898;52.102;5.776;2023-03-03T04:12:29;7.90;99.80
36990;DHT22;22898;52.102;5.776;2023-03-03T04:14:55;8.00;99.80
36990;DHT22;22898;52.102;5.776;2023-03-03T04:17:21;8.20;99.30
36990;DHT22;22898;52.102;5.776;2023-03-03T04:19:51;7.80;99.50
36990;DHT22;22898;52.102;5.776;2023-03-03T04:22:16;7.40;99.90
36990;DHT22;22898;52.102;5.776;2023-03-03T04:24:42;7.20;99.90
36990;DHT22;22898;52.102;5.776;2023-03-03T04:27:08;7.50;99.90
36990;DHT22;22898;52.102;5.776;2023-03-03T04:29:34;7.80;99.90
36990;DHT22;22898;52.102;5.776;2023-03-03T04:31:59;7.90;99.90
36990;DHT22;22898;52.102;5.776;2023-03-03T04:34:26;8.10;99.80
36990;DHT22;22898;52.102;5.776;2023-03-03T04:36:54;8.10;99.90
36990;DHT22;22898;52.102;5.776;2023-03-03T04:39:20;7.80;99.90
36990;DHT22;22898;52.102;5.776;2023-03-03T04:41:45;7.30;99.90
36990;DHT22;22898;52.102;5.776;2023-03-03T04:44:10;7.40;99.90
36990;DHT22;22898;52.102;5.776;2023-03-03T04:46:36;7.20;99.90
36990;DHT22;22898;52.102;5.776;2023-03-03T04:49:02;7.30;99.90
36990;DHT22;22898;52.102;5.776;2023-03-03T04:51:28;7.60;99.90
36990;DHT22;22898;52.102;5.776;2023-03-03T04:53:55;7.60;99.90
36990;DHT22;22898;52.102;5.776;2023-03-03T04:56:20;7.70;99.90
36990;DHT22;22898;52.102;5.776;2023-03-03T04:58:46;7.70;99.90
36990;DHT22;22898;52.102;5.776;2023-03-03T05:01:12;7.50;99.90
36990;DHT22;22898;52.102;5.776;2023-03-03T05:03:41;7.60;99.90
36990;DHT22;22898;52.102;5.776;2023-03-03T05:06:07;7.90;99.90
36990;DHT22;22898;52.102;5.776;2023-03-03T05:08:32;8.00;99.90
36990;DHT22;22898;52.102;5.776;2023-03-03T05:10:58;7.90;99.90
36990;DHT22;22898;52.102;5.776;2023-03-03T05:13:27;7.80;99.90
36990;DHT22;22898;52.102;5.776;2023-03-03T05:15:53;7.80;99.90
36990;DHT22;22898;52.102;5.776;2023-03-03T05:18:23;7.80;99.90
36990;DHT22;22898;52.102;5.776;2023-03-03T05:20:50;8.00;99.90
36990;DHT22;22898;52.102;5.776;2023-03-03T05:23:16;8.30;99.60
36990;DHT22;22898;52.102;5.776;2023-03-03T05:25:41;8.10;99.80
36990;DHT22;22898;52.102;5.776;2023-03-03T05:28:09;7.90;99.80
36990;DHT22;22898;52.102;5.776;2023-03-03T05:30:36;7.80;99.90
36990;DHT22;22898;52.102;5.776;2023-03-03T05:33:02;7.80;99.90
36990;DHT22;22898;52.102;5.776;2023-03-03T05:35:28;7.70;99.90
36990;DHT22;22898;52.102;5.776;2023-03-03T05:37:54;7.50;99.90
36990;DHT22;22898;52.102;5.776;2023-03-03T05:40:19;7.50;99.90
36990;DHT22;22898;52.102;5.776;2023-03-03T05:42:45;7.60;99.90
36990;DHT22;22898;52.102;5.776;2023-03-03T05:45:11;7.70;99.90
36990;DHT22;22898;52.102;5.776;2023-03-03T05:47:37;7.90;99.90
36990;DHT22;22898;52.102;5.776;2023-03-03T05:50:04;8.20;99.80
36990;DHT22;22898;52.102;5.776;2023-03-03T05:52:29;8.20;99.90
36990;DHT22;22898;52.102;5.776;2023-03-03T05:54:55;8.40;99.90
36990;DHT22;22898;52.102;5.776;2023-03-03T05:57:21;8.70;99.00
36990;DHT22;22898;52.102;5.776;2023-03-03T05:59:46;8.90;98.40
36990;DHT22;22898;52.102;5.776;2023-03-03T06:02:12;8.40;99.40
36990;DHT22;22898;52.102;5.776;2023-03-03T06:04:37;8.00;99.90
36990;DHT22;22898;52.102;5.776;2023-03-03T06:07:04;7.90;99.90
36990;DHT22;22898;52.102;5.776;2023-03-03T06:09:30;8.00;99.90
36990;DHT22;22898;52.102;5.776;2023-03-03T06:11:56;7.90;99.90
36990;DHT22;22898;52.102;5.776;2023-03-03T06:14:21;8.10;99.90
36990;DHT22;22898;52.102;5.776;2023-03-03T06:16:48;7.90;99.90
36990;DHT22;22898;52.102;5.776;2023-03-03T06:19:15;8.00;99.90
36990;DHT22;22898;52.102;5.776;2023-03-03T06:21:41;8.10;99.90
36990;DHT22;22898;52.102;5.776;2023-03-03T06:24:07;7.80;99.90
36990;DHT22;22898;52.102;5.776;2023-03-03T06:26:32;7.50;99.90
36990;DHT22;22898;52.102;5.776;2023-03-03T06:28:58;7.80;99.90
36990;DHT22;22898;52.102;5.776;2023-03-03T06:31:25;8.00;99.90
36990;DHT22;22898;52.102;5.776;2023-03-03T06:33:50;8.30;99.90
36990;DHT22;22898;52.102;5.776;2023-03-03T06:36:17;8.40;99.90
36990;DHT22;22898;52.102;5.776;2023-03-03T06:38:43;8.50;99.90
36990;DHT22;22898;52.102;5.776;2023-03-03T06:41:10;8.60;99.90
36990;DHT22;22898;52.102;5.776;2023-03-03T06:43:36;8.70;99.90
36990;DHT22;22898;52.102;5.776;2023-03-03T06:46:03;8.90;99.90
36990;DHT22;22898;52.102;5.776;2023-03-03T06:48:30;9.00;99.30
36990;DHT22;22898;52.102;5.776;2023-03-03T06:51:01;9.10;99.20
36990;DHT22;22898;52.102;5.776;2023-03-03T06:53:27;8.90;99.60
36990;DHT22;22898;52.102;5.776;2023-03-03T06:55:54;8.80;99.90
36990;DHT22;22898;52.102;5.776;2023-03-03T06:58:21;9.00;99.80
36990;DHT22;22898;52.102;5.776;2023-03-03T07:00:53;9.20;99.40
36990;DHT22;22898;52.102;5.776;2023-03-03T07:03:23;9.10;99.70
36990;DHT22;22898;52.102;5.776;2023-03-03T07:05:49;9.40;99.30
36990;DHT22;22898;52.102;5.776;2023-03-03T07:08:18;9.40;99.10
36990;DHT22;22898;52.102;5.776;2023-03-03T07:10:44;9.30;99.20
36990;DHT22;22898;52.102;5.776;2023-03-03T07:15:39;9.20;99.50
36990;DHT22;22898;52.102;5.776;2023-03-03T07:18:33;9.20;99.80
36990;DHT22;22898;52.102;5.776;2023-03-03T07:20:58;9.30;99.80
36990;DHT22;22898;52.102;5.776;2023-03-03T07:23:34;9.60;99.50
36990;DHT22;22898;52.102;5.776;2023-03-03T07:26:24;9.70;99.50
36990;DHT22;22898;52.102;5.776;2023-03-03T07:29:02;9.90;98.80
36990;DHT22;22898;52.102;5.776;2023-03-03T07:31:39;10.10;98.60
36990;DHT22;22898;52.102;5.776;2023-03-03T07:37:08;10.10;98.50
36990;DHT22;22898;52.102;5.776;2023-03-03T07:39:35;10.20;98.50
36990;DHT22;22898;52.102;5.776;2023-03-03T07:44:56;10.00;98.40
36990;DHT22;22898;52.102;5.776;2023-03-03T07:47:30;10.20;98.40
36990;DHT22;22898;52.102;5.776;2023-03-03T07:50:12;10.20;98.00
36990;DHT22;22898;52.102;5.776;2023-03-03T07:52:43;9.90;98.70
36990;DHT22;22898;52.102;5.776;2023-03-03T07:57:55;10.00;98.60
36990;DHT22;22898;52.102;5.776;2023-03-03T08:03:16;9.70;99.00
36990;DHT22;22898;52.102;5.776;2023-03-03T08:05:45;9.50;99.10
36990;DHT22;22898;52.102;5.776;2023-03-03T08:08:28;9.60;99.20
36990;DHT22;22898;52.102;5.776;2023-03-03T08:10:58;9.90;99.00
36990;DHT22;22898;52.102;5.776;2023-03-03T08:16:03;10.20;98.60
36990;DHT22;22898;52.102;5.776;2023-03-03T08:18:44;10.30;98.20
36990;DHT22;22898;52.102;5.776;2023-03-03T08:21:20;9.80;99.00
36990;DHT22;22898;52.102;5.776;2023-03-03T08:23:46;9.50;99.70
36990;DHT22;22898;52.102;5.776;2023-03-03T08:26:16;9.70;99.30
36990;DHT22;22898;52.102;5.776;2023-03-03T08:28:43;9.70;99.30
36990;DHT22;22898;52.102;5.776;2023-03-03T08:31:09;9.30;99.90
36990;DHT22;22898;52.102;5.776;2023-03-03T08:33:35;9.60;99.40
36990;DHT22;22898;52.102;5.776;2023-03-03T08:36:01;10.00;99.20
36990;DHT22;22898;52.102;5.776;2023-03-03T08:38:27;10.00;98.70
36990;DHT22;22898;52.102;5.776;2023-03-03T08:40:52;9.80;99.00
36990;DHT22;22898;52.102;5.776;2023-03-03T08:43:18;9.70;99.30
36990;DHT22;22898;52.102;5.776;2023-03-03T08:45:50;9.80;98.90
36990;DHT22;22898;52.102;5.776;2023-03-03T08:48:19;10.00;98.80
36990;DHT22;22898;52.102;5.776;2023-03-03T08:50:45;9.80;99.10
36990;DHT22;22898;52.102;5.776;2023-03-03T08:53:13;10.00;99.00
36990;DHT22;22898;52.102;5.776;2023-03-03T08:55:40;10.20;98.30
36990;DHT22;22898;52.102;5.776;2023-03-03T08:58:06;10.00;98.10
36990;DHT22;22898;52.102;5.776;2023-03-03T09:00:34;10.10;98.30
36990;DHT22;22898;52.102;5.776;2023-03-03T09:03:01;10.10;98.30
36990;DHT22;22898;52.102;5.776;2023-03-03T09:05:27;10.10;98.00
36990;DHT22;22898;52.102;5.776;2023-03-03T09:07:54;10.10;98.10
36990;DHT22;22898;52.102;5.776;2023-03-03T09:10:23;10.00;98.50
36990;DHT22;22898;52.102;5.776;2023-03-03T09:12:55;10.10;98.40
36990;DHT22;22898;52.102;5.776;2023-03-03T09:15:33;10.40;98.00
36990;DHT22;22898;52.102;5.776;2023-03-03T09:18:20;11.00;97.20
36990;DHT22;22898;52.102;5.776;2023-03-03T09:20:52;10.90;96.60
36990;DHT22;22898;52.102;5.776;2023-03-03T09:23:40;10.10;97.00
36990;DHT22;22898;52.102;5.776;2023-03-03T09:29:27;9.70;98.20
36990;DHT22;22898;52.102;5.776;2023-03-03T09:31:53;10.10;97.90
36990;DHT22;22898;52.102;5.776;2023-03-03T09:34:24;10.40;97.30
36990;DHT22;22898;52.102;5.776;2023-03-03T09:36:52;10.90;96.80
36990;DHT22;22898;52.102;5.776;2023-03-03T09:39:21;11.50;96.20
36990;DHT22;22898;52.102;5.776;2023-03-03T09:47:29;12.20;94.10
36990;DHT22;22898;52.102;5.776;2023-03-03T09:58:38;11.70;94.70
36990;DHT22;22898;52.102;5.776;2023-03-03T10:04:41;11.30;95.40
36990;DHT22;22898;52.102;5.776;2023-03-03T10:13:20;11.10;96.00
36990;DHT22;22898;52.102;5.776;2023-03-03T10:16:12;11.20;96.00
36990;DHT22;22898;52.102;5.776;2023-03-03T10:21:35;11.70;95.10
36990;DHT22;22898;52.102;5.776;2023-03-03T10:30:00;12.10;94.70
36990;DHT22;22898;52.102;5.776;2023-03-03T10:32:53;12.40;93.70
36990;DHT22;22898;52.102;5.776;2023-03-03T10:38:42;12.30;93.80
36990;DHT22;22898;52.102;5.776;2023-03-03T10:41:36;11.80;94.70
36990;DHT22;22898;52.102;5.776;2023-03-03T10:55:47;12.40;93.80
36990;DHT22;22898;52.102;5.776;2023-03-03T10:58:29;12.60;93.70
36990;DHT22;22898;52.102;5.776;2023-03-03T11:09:33;12.20;93.50
36990;DHT22;22898;52.102;5.776;2023-03-03T11:15:23;12.00;93.60
36990;DHT22;22898;52.102;5.776;2023-03-03T11:18:03;12.20;93.70
36990;DHT22;22898;52.102;5.776;2023-03-03T11:23:41;12.30;93.30
36990;DHT22;22898;52.102;5.776;2023-03-03T11:26:37;12.60;93.40
36990;DHT22;22898;52.102;5.776;2023-03-03T11:29:15;12.70;92.40
36990;DHT22;22898;52.102;5.776;2023-03-03T11:34:59;12.60;92.30
36990;DHT22;22898;52.102;5.776;2023-03-03T11:37:41;12.40;92.30
36990;DHT22;22898;52.102;5.776;2023-03-03T11:40:25;12.00;93.30
36990;DHT22;22898;52.102;5.776;2023-03-03T11:43:05;11.60;93.80
36990;DHT22;22898;52.102;5.776;2023-03-03T11:45:45;11.90;93.10
36990;DHT22;22898;52.102;5.776;2023-03-03T11:48:17;12.20;93.20
36990;DHT22;22898;52.102;5.776;2023-03-03T11:56:42;12.30;92.20
36990;DHT22;22898;52.102;5.776;2023-03-03T12:02:08;12.50;91.30
36990;DHT22;22898;52.102;5.776;2023-03-03T12:04:46;13.10;90.80
36990;DHT22;22898;52.102;5.776;2023-03-03T12:10:16;13.80;89.00
36990;DHT22;22898;52.102;5.776;2023-03-03T12:13:05;13.90;88.80
36990;DHT22;22898;52.102;5.776;2023-03-03T12:15:56;14.00;87.90
36990;DHT22;22898;52.102;5.776;2023-03-03T12:24:38;14.30;88.60
36990;DHT22;22898;52.102;5.776;2023-03-03T12:30:09;14.70;85.50
36990;DHT22;22898;52.102;5.776;2023-03-03T12:38:37;12.90;90.80
36990;DHT22;22898;52.102;5.776;2023-03-03T12:44:17;13.30;90.00
36990;DHT22;22898;52.102;5.776;2023-03-03T12:46:59;13.00;90.40
36990;DHT22;22898;52.102;5.776;2023-03-03T12:49:44;12.60;90.90
36990;DHT22;22898;52.102;5.776;2023-03-03T12:52:57;12.50;91.40
36990;DHT22;22898;52.102;5.776;2023-03-03T13:01:25;14.60;84.90
36990;DHT22;22898;52.102;5.776;2023-03-03T13:15:02;13.10;89.80
36990;DHT22;22898;52.102;5.776;2023-03-03T13:17:41;13.70;86.40
36990;DHT22;22898;52.102;5.776;2023-03-03T13:20:28;14.20;85.70
36990;DHT22;22898;52.102;5.776;2023-03-03T13:25:57;14.40;85.60
36990;DHT22;22898;52.102;5.776;2023-03-03T13:28:35;13.70;87.20
36990;DHT22;22898;52.102;5.776;2023-03-03T13:31:18;14.10;85.90
36990;DHT22;22898;52.102;5.776;2023-03-03T13:33:52;14.40;85.10
36990;DHT22;22898;52.102;5.776;2023-03-03T13:36:19;13.60;86.00
36990;DHT22;22898;52.102;5.776;2023-03-03T13:38:59;14.10;84.10
36990;DHT22;22898;52.102;5.776;2023-03-03T13:44:33;14.30;84.20
36990;DHT22;22898;52.102;5.776;2023-03-03T13:47:47;13.70;86.10
36990;DHT22;22898;52.102;5.776;2023-03-03T13:50:21;13.30;87.40
36990;DHT22;22898;52.102;5.776;2023-03-03T13:55:43;12.40;88.80
36990;DHT22;22898;52.102;5.776;2023-03-03T14:01:03;13.50;86.50
36990;DHT22;22898;52.102;5.776;2023-03-03T14:03:52;13.40;86.80
36990;DHT22;22898;52.102;5.776;2023-03-03T14:06:26;13.60;87.00
36990;DHT22;22898;52.102;5.776;2023-03-03T14:09:17;12.90;89.30
36990;DHT22;22898;52.102;5.776;2023-03-03T14:12:06;12.40;90.50
36990;DHT22;22898;52.102;5.776;2023-03-03T14:20:48;12.80;89.10
36990;DHT22;22898;52.102;5.776;2023-03-03T14:23:18;12.50;89.80
36990;DHT22;22898;52.102;5.776;2023-03-03T14:28:40;12.30;90.30
36990;DHT22;22898;52.102;5.776;2023-03-03T14:31:37;12.70;89.90
36990;DHT22;22898;52.102;5.776;2023-03-03T14:34:24;13.50;86.90
36990;DHT22;22898;52.102;5.776;2023-03-03T14:40:32;13.70;84.60
36990;DHT22;22898;52.102;5.776;2023-03-03T14:45:34;13.20;87.20
36990;DHT22;22898;52.102;5.776;2023-03-03T14:48:23;13.00;89.20
36990;DHT22;22898;52.102;5.776;2023-03-03T14:51:14;13.10;89.70
36990;DHT22;22898;52.102;5.776;2023-03-03T14:53:44;13.00;90.30
36990;DHT22;22898;52.102;5.776;2023-03-03T14:56:35;12.60;90.70
36990;DHT22;22898;52.102;5.776;2023-03-03T14:59:24;11.40;91.50
36990;DHT22;22898;52.102;5.776;2023-03-03T15:04:26;11.60;92.40
36990;DHT22;22898;52.102;5.776;2023-03-03T15:06:53;11.70;92.30
36990;DHT22;22898;52.102;5.776;2023-03-03T15:11:54;12.70;91.90
36990;DHT22;22898;52.102;5.776;2023-03-03T15:14:36;12.10;92.60
36990;DHT22;22898;52.102;5.776;2023-03-03T15:17:26;11.50;93.40
36990;DHT22;22898;52.102;5.776;2023-03-03T15:23:26;11.20;93.70
36990;DHT22;22898;52.102;5.776;2023-03-03T15:29:07;11.50;93.60
36990;DHT22;22898;52.102;5.776;2023-03-03T15:31:51;11.90;92.60
36990;DHT22;22898;52.102;5.776;2023-03-03T15:37:37;11.50;92.40
36990;DHT22;22898;52.102;5.776;2023-03-03T15:40:41;11.50;92.50
36990;DHT22;22898;52.102;5.776;2023-03-03T15:43:26;12.30;91.50
36990;DHT22;22898;52.102;5.776;2023-03-03T15:46:02;12.20;91.30
36990;DHT22;22898;52.102;5.776;2023-03-03T15:48:45;11.70;91.90
36990;DHT22;22898;52.102;5.776;2023-03-03T15:51:25;11.50;91.70
36990;DHT22;22898;52.102;5.776;2023-03-03T15:56:58;11.10;92.30
36990;DHT22;22898;52.102;5.776;2023-03-03T15:59:44;11.30;92.10
36990;DHT22;22898;52.102;5.776;2023-03-03T16:02:20;11.80;91.50
36990;DHT22;22898;52.102;5.776;2023-03-03T16:10:30;10.80;92.30
36990;DHT22;22898;52.102;5.776;2023-03-03T16:15:49;10.80;92.40
36990;DHT22;22898;52.102;5.776;2023-03-03T16:21:41;10.80;92.60
36990;DHT22;22898;52.102;5.776;2023-03-03T16:24:38;11.10;92.40
36990;DHT22;22898;52.102;5.776;2023-03-03T16:27:19;10.70;93.30
36990;DHT22;22898;52.102;5.776;2023-03-03T16:32:39;10.00;94.30
36990;DHT22;22898;52.102;5.776;2023-03-03T16:35:47;10.00;94.40
36990;DHT22;22898;52.102;5.776;2023-03-03T16:38:43;9.80;94.30
36990;DHT22;22898;52.102;5.776;2023-03-03T16:41:20;9.60;95.00
36990;DHT22;22898;52.102;5.776;2023-03-03T16:46:42;9.60;95.00
36990;DHT22;22898;52.102;5.776;2023-03-03T16:49:30;9.30;95.30
36990;DHT22;22898;52.102;5.776;2023-03-03T16:52:12;9.50;95.40
36990;DHT22;22898;52.102;5.776;2023-03-03T16:54:43;9.10;95.20
36990;DHT22;22898;52.102;5.776;2023-03-03T16:57:29;9.20;95.20
36990;DHT22;22898;52.102;5.776;2023-03-03T17:00:20;9.10;95.10
36990;DHT22;22898;52.102;5.776;2023-03-03T17:03:02;9.00;95.30
36990;DHT22;22898;52.102;5.776;2023-03-03T17:14:15;9.60;94.00
36990;DHT22;22898;52.102;5.776;2023-03-03T17:17:06;9.20;94.70
36990;DHT22;22898;52.102;5.776;2023-03-03T17:20:01;9.30;95.00
36990;DHT22;22898;52.102;5.776;2023-03-03T17:22:46;9.70;94.40
36990;DHT22;22898;52.102;5.776;2023-03-03T17:25:25;10.40;93.40
36990;DHT22;22898;52.102;5.776;2023-03-03T17:27:59;10.10;93.30
36990;DHT22;22898;52.102;5.776;2023-03-03T17:30:47;9.70;93.90
36990;DHT22;22898;52.102;5.776;2023-03-03T17:36:26;8.90;95.50
36990;DHT22;22898;52.102;5.776;2023-03-03T17:44:05;11.00;92.70
36990;DHT22;22898;52.102;5.776;2023-03-03T17:46:56;10.70;92.80
36990;DHT22;22898;52.102;5.776;2023-03-03T17:55:30;10.60;92.90
36990;DHT22;22898;52.102;5.776;2023-03-03T18:03:57;10.90;92.50
36990;DHT22;22898;52.102;5.776;2023-03-03T18:09:02;10.20;93.40
36990;DHT22;22898;52.102;5.776;2023-03-03T18:11:55;10.60;93.10
36990;DHT22;22898;52.102;5.776;2023-03-03T18:15:04;10.70;93.20
36990;DHT22;22898;52.102;5.776;2023-03-03T18:23:32;8.90;95.30
36990;DHT22;22898;52.102;5.776;2023-03-03T18:28:50;8.80;95.80
36990;DHT22;22898;52.102;5.776;2023-03-03T18:31:25;8.60;96.30
36990;DHT22;22898;52.102;5.776;2023-03-03T18:34:08;9.00;95.60
36990;DHT22;22898;52.102;5.776;2023-03-03T18:36:38;9.40;95.20
36990;DHT22;22898;52.102;5.776;2023-03-03T18:39:15;9.50;95.20
36990;DHT22;22898;52.102;5.776;2023-03-03T18:42:04;10.30;94.20
36990;DHT22;22898;52.102;5.776;2023-03-03T18:44:30;10.60;93.40
36990;DHT22;22898;52.102;5.776;2023-03-03T18:46:56;10.00;94.50
36990;DHT22;22898;52.102;5.776;2023-03-03T18:52:30;10.60;93.60
36990;DHT22;22898;52.102;5.776;2023-03-03T18:57:34;10.70;93.50
36990;DHT22;22898;52.102;5.776;2023-03-03T19:00:22;10.60;93.60
36990;DHT22;22898;52.102;5.776;2023-03-03T19:02:58;10.80;93.20
36990;DHT22;22898;52.102;5.776;2023-03-03T19:05:45;10.90;93.20
36990;DHT22;22898;52.102;5.776;2023-03-03T19:11:00;9.60;95.30
36990;DHT22;22898;52.102;5.776;2023-03-03T19:16:05;9.70;95.30
36990;DHT22;22898;52.102;5.776;2023-03-03T19:26:43;10.90;93.90
36990;DHT22;22898;52.102;5.776;2023-03-03T19:29:30;11.40;93.20
36990;DHT22;22898;52.102;5.776;2023-03-03T19:40:35;10.40;94.90
36990;DHT22;22898;52.102;5.776;2023-03-03T19:43:35;10.70;94.30
36990;DHT22;22898;52.102;5.776;2023-03-03T19:49:08;9.70;96.00
36990;DHT22;22898;52.102;5.776;2023-03-03T19:51:49;10.00;95.90
36990;DHT22;22898;52.102;5.776;2023-03-03T19:54:21;9.80;96.00
36990;DHT22;22898;52.102;5.776;2023-03-03T19:56:53;9.90;96.00
36990;DHT22;22898;52.102;5.776;2023-03-03T20:02:30;10.40;95.20
36990;DHT22;22898;52.102;5.776;2023-03-03T20:05:07;10.30;95.50
36990;DHT22;22898;52.102;5.776;2023-03-03T20:07:49;10.20;95.70
36990;DHT22;22898;52.102;5.776;2023-03-03T20:10:23;11.00;94.60
36990;DHT22;22898;52.102;5.776;2023-03-03T20:21:21;10.90;94.40
36990;DHT22;22898;52.102;5.776;2023-03-03T20:35:35;10.10;96.10
36990;DHT22;22898;52.102;5.776;2023-03-03T20:38:29;10.00;96.20
36990;DHT22;22898;52.102;5.776;2023-03-03T20:43:59;10.30;95.80
36990;DHT22;22898;52.102;5.776;2023-03-03T20:46:52;10.10;96.30
36990;DHT22;22898;52.102;5.776;2023-03-03T20:51:59;11.10;94.90
36990;DHT22;22898;52.102;5.776;2023-03-03T20:57:21;10.90;95.00
36990;DHT22;22898;52.102;5.776;2023-03-03T21:00:02;11.20;94.80
36990;DHT22;22898;52.102;5.776;2023-03-03T21:02:44;11.10;94.60
36990;DHT22;22898;52.102;5.776;2023-03-03T21:05:18;10.90;95.00
36990;DHT22;22898;52.102;5.776;2023-03-03T21:08:02;10.90;95.20
36990;DHT22;22898;52.102;5.776;2023-03-03T21:10:30;10.90;95.30
36990;DHT22;22898;52.102;5.776;2023-03-03T21:13:36;11.00;95.00
36990;DHT22;22898;52.102;5.776;2023-03-03T21:18:57;10.70;95.50
36990;DHT22;22898;52.102;5.776;2023-03-03T21:21:23;10.70;95.80
36990;DHT22;22898;52.102;5.776;2023-03-03T21:23:50;10.60;95.60
36990;DHT22;22898;52.102;5.776;2023-03-03T21:26:56;10.70;95.70
36990;DHT22;22898;52.102;5.776;2023-03-03T21:29:34;10.90;94.90